Latest Weather Observations for Brisbane Airport

IDQ60901

Issued at 2:51 pm EST Monday 6 July 2015 (issued every 10 minutes, with the page automatically refreshed every 10 minutes)

About weather observations | Map of Brisbane area stations | Latest observations for Brisbane area | Other Formats
Station Details ID: 040842 Name: BRISBANE AERO Lat: -27.39 Lon: 153.13 Height: 4.51 m
Data from the previous 72 hours. | See also: Recent months at Brisbane Airport
Date/Time
EST
Tmp

°C
App
Tmp
°C
Dew
Point
°C
Rel
Hum
%
Delta-T

°C
Wind Press
QNH
hPa
Press
MSL
hPa
Rain
since
9 am
mm
Dir
 
Spd
km/h
Gust
km/h
Spd
kts
Gust
kts
06/02:30pm 21.7 19.0 10.3 48 6.2 N 15 19 8 10 1015.6 - 0.0
06/02:00pm 21.5 18.5 10.7 50 5.9 N 17 22 9 12 1015.8 - 0.0
06/01:30pm 21.4 18.3 10.4 49 6.0 N 17 20 9 11 1016.0 - 0.0
06/01:00pm 21.4 17.9 10.1 48 6.1 N 19 22 10 12 1016.6 - 0.0
06/12:30pm 21.3 18.3 10.7 50 5.8 NNE 17 22 9 12 1017.0 - 0.0
06/12:00pm 21.6 18.9 10.2 48 6.2 NNE 15 19 8 10 1017.6 1017.6 0.0
06/11:30am 21.3 18.2 10.2 49 6.0 N 17 26 9 14 1018.1 - 0.0
06/11:00am 21.4 18.5 9.7 47 6.3 NNW 15 19 8 10 1018.6 - 0.0
06/10:30am 20.3 18.8 10.7 54 5.2 N 9 13 5 7 1019.1 - 0.0
06/09:00am 14.4 13.5 11.4 82 1.6 SW 7 9 4 5 1019.8 1019.8 0.0
06/08:30am 12.4 11.7 10.1 86 1.2 SSW 4 11 2 6 1019.9 - 0.0
06/08:00am 11.3 10.0 9.3 87 1.0 SSW 6 7 3 4 1019.8 - 0.0
06/07:30am 10.1 8.1 8.5 90 0.8 S 9 11 5 6 1019.8 - 0.0
06/07:00am 8.8 5.8 7.7 93 0.5 SSW 13 17 7 9 1019.6 - 0.0
06/06:30am 9.5 7.0 8.0 90 0.7 S 11 13 6 7 1019.5 - 0.0
06/05:30am 9.8 7.0 8.4 91 0.7 SSW 13 15 7 8 1019.4 - 0.0
06/05:00am 9.9 7.5 8.5 91 0.7 SSW 11 15 6 8 1019.2 - 0.0
06/04:30am 10.0 8.1 9.0 93 0.5 SW 9 11 5 6 1019.2 - 0.0
06/03:30am 11.7 10.0 9.7 87 1.0 W 9 11 5 6 1019.3 - 0.0
06/03:00am 11.5 9.8 9.9 90 0.8 WSW 9 11 5 6 1019.5 1019.5 0.0
06/02:30am 12.1 11.4 10.1 87 1.0 W 4 7 2 4 1019.5 - 0.0
06/02:00am 12.3 11.2 10.6 89 0.9 W 7 9 4 5 1019.7 - 0.0
06/01:30am 12.8 11.9 10.5 86 1.2 NNW 6 7 3 4 1020.0 - 0.0
06/01:00am 12.6 11.6 11.1 91 0.8 NNW 7 9 4 5 1020.3 - 0.0
06/12:30am 12.7 11.4 11.2 91 0.8 NW 9 11 5 6 1020.5 - 0.0
 
Date/Time
EST
Tmp

°C
App
Tmp
°C
Dew
Point
°C
Rel
Hum
%
Delta-T

°C
Wind Press
QNH
hPa
Press
MSL
hPa
Rain
since
9 am
mm
Dir
 
Spd
km/h
Gust
km/h
Spd
kts
Gust
kts
05/11:30pm 13.0 11.2 10.9 87 1.1 NNW 11 15 6 8 1020.5 - 0.0
05/11:00pm 13.3 12.0 11.2 87 1.1 NW 9 15 5 8 1020.6 - 0.0
05/10:30pm 13.8 12.5 11.1 84 1.4 NW 9 13 5 7 1020.9 - 0.0
05/10:00pm 13.3 12.5 11.2 87 1.1 NW 6 9 3 5 1020.9 - 0.0
05/09:30pm 13.7 12.9 11.6 87 1.1 NW 7 7 4 4 1021.0 - 0.0
05/09:00pm 14.8 14.1 12.0 83 1.5 NW 7 13 4 7 1020.9 1020.9 0.0
05/08:30pm 14.2 13.7 12.5 89 0.9 WNW 7 11 4 6 1020.6 - 0.0
05/08:00pm 15.0 13.4 12.8 87 1.2 N 13 15 7 8 1020.4 - 0.0
05/07:30pm 15.3 13.5 13.3 88 1.1 N 15 19 8 10 1020.4 - 0.0
05/07:00pm 15.2 12.8 12.6 84 1.4 N 17 22 9 12 1020.3 - 0.0
05/06:30pm 15.3 13.5 12.0 81 1.8 N 13 15 7 8 1020.1 - 0.0
05/05:30pm 17.1 14.9 8.0 55 4.6 N 9 15 5 8 1019.9 - 0.0
05/05:00pm 18.1 15.2 8.3 52 5.0 NW 13 13 7 7 1019.8 - 0.0
05/04:30pm 20.0 17.0 7.5 44 6.4 NNW 13 20 7 11 1019.7 - 0.0
05/04:00pm 20.9 17.0 7.2 41 7.0 NW 17 19 9 10 1019.6 - 0.0
05/03:30pm 21.3 18.3 7.5 41 7.1 NW 13 20 7 11 1019.6 - 0.0
05/03:00pm 20.3 18.8 12.0 59 4.6 N 11 13 6 7 1019.7 1019.7 0.0
05/02:30pm 19.7 17.8 13.0 65 3.8 NNE 15 19 8 10 1019.7 - 0.0
05/02:00pm 20.6 18.7 11.8 57 4.9 N 13 17 7 9 1019.9 - 0.0
05/01:30pm 19.5 18.1 13.5 68 3.4 N 13 15 7 8 1020.2 - 0.0
05/01:00pm 19.7 17.9 13.4 67 3.6 NNE 15 19 8 10 1020.5 - 0.0
05/12:30pm 19.9 18.0 13.0 64 3.9 NNE 15 19 8 10 1020.8 - 0.0
05/12:00pm 20.4 18.3 12.4 60 4.5 N 15 20 8 11 1021.5 1021.5 0.0
05/11:30am 20.7 19.1 12.7 60 4.5 N 13 19 7 10 1022.0 - 0.0
05/11:00am 20.6 19.7 12.6 60 4.5 NNW 9 22 5 12 1022.5 - 0.0
05/10:30am 19.4 18.8 12.2 63 4.0 W 7 13 4 7 1022.9 - 0.0
05/10:00am 17.9 16.2 12.3 70 3.1 SSW 13 17 7 9 1023.1 - 0.0
05/09:30am 16.5 14.2 11.9 74 2.5 SSW 15 19 8 10 1023.2 - 0.0
05/09:00am 15.3 13.2 12.4 83 1.6 SSW 15 19 8 10 1023.0 1023.0 0.0
05/08:30am 14.0 11.7 11.9 87 1.1 SSW 15 19 8 10 1022.8 - 0.0
05/08:00am 12.6 10.5 11.3 92 0.7 SSW 13 17 7 9 1022.6 - 0.0
05/07:30am 10.8 8.4 10.0 95 0.4 SSW 13 17 7 9 1022.4 - 0.0
05/07:00am 9.2 6.8 8.8 97 0.2 SSW 11 13 6 7 1022.1 - 0.0
05/06:30am 8.8 6.0 8.4 97 0.2 SW 13 15 7 8 1021.9 - 0.0
05/06:00am 9.6 6.9 9.0 96 0.3 SSW 13 15 7 8 1021.5 1021.5 0.0
05/05:30am 10.0 7.9 9.6 97 0.2 SSW 11 15 6 8 1021.3 - 0.0
05/05:00am 10.0 7.4 9.4 96 0.3 SSW 13 17 7 9 1021.1 - 0.0
05/04:30am 9.6 7.0 9.2 97 0.2 SSW 13 17 7 9 1020.9 - 0.0
05/04:00am 9.9 7.3 9.3 96 0.3 SSW 13 17 7 9 1020.8 - 0.0
05/03:30am 11.3 8.5 10.1 92 0.6 SSW 15 19 8 10 1021.1 - 0.0
05/03:00am 10.0 7.5 9.8 99 0.1 SSW 13 17 7 9 1021.2 1021.2 0.0
05/02:30am 9.6 7.3 9.0 96 0.3 SSW 11 13 6 7 1021.4 - 0.0
05/02:00am 10.3 10.3 9.9 97 0.2 CALM 0 0 0 0 1021.8 - 0.0
05/01:30am 10.0 8.6 9.6 97 0.2 SSW 7 11 4 6 1021.8 - 0.0
05/01:00am 9.5 8.0 9.1 97 0.2 SW 7 9 4 5 1022.0 - 0.0
05/12:30am 10.2 8.8 9.6 96 0.3 SW 7 9 4 5 1022.1 - 0.0
05/12:00am 10.5 10.3 10.3 99 0.1 SW 2 7 1 4 1022.2 1022.2 0.0
 
Date/Time
EST
Tmp

°C
App
Tmp
°C
Dew
Point
°C
Rel
Hum
%
Delta-T

°C
Wind Press
QNH
hPa
Press
MSL
hPa
Rain
since
9 am
mm
Dir
 
Spd
km/h
Gust
km/h
Spd
kts
Gust
kts
04/11:30pm 11.2 11.5 10.8 97 0.2 CALM 0 0 0 0 1022.4 - 0.0
04/11:00pm 11.3 11.5 10.7 96 0.3 CALM 0 4 0 2 1022.5 - 0.0
04/10:30pm 11.9 11.0 10.7 92 0.6 S 6 7 3 4 1022.5 - 0.0
04/10:00pm 12.8 12.0 11.7 93 0.6 W 7 11 4 6 1022.4 - 0.0
04/09:30pm 12.5 12.9 11.4 93 0.6 CALM 0 6 0 3 1022.4 - 0.0
04/09:00pm 12.7 11.9 11.0 89 0.9 NW 6 9 3 5 1022.3 1022.3 0.0
04/08:30pm 12.5 12.2 11.6 94 0.5 NW 4 7 2 4 1022.3 - 0.0
04/08:00pm 12.4 12.5 11.4 94 0.5 WNW 2 9 1 5 1022.1 - 0.0
04/07:30pm 13.4 13.7 12.1 92 0.7 WNW 2 6 1 3 1021.9 - 0.0
04/07:00pm 13.2 12.5 11.5 89 0.9 NW 6 7 3 4 1021.5 - 0.0
04/06:30pm 14.5 15.2 12.3 87 1.2 CALM 0 0 0 0 1021.1 - 0.0
04/06:00pm 14.8 15.6 12.4 85 1.3 CALM 0 0 0 0 1020.7 1020.7 0.0
04/05:30pm 15.0 14.4 12.4 84 1.4 NNE 7 7 4 4 1020.5 - 0.0
04/05:00pm 16.0 15.4 12.3 79 2.0 N 7 7 4 4 1020.4 - 0.0
04/04:30pm 17.5 16.4 12.0 70 3.0 NNE 9 13 5 7 1020.4 - 0.0
04/04:00pm 19.0 17.6 10.9 59 4.4 NNE 9 11 5 6 1020.3 - 0.0
04/03:30pm 19.3 17.5 11.0 58 4.5 NNE 11 13 6 7 1020.6 - 0.0
04/03:00pm 19.5 17.4 11.0 58 4.6 NNE 13 15 7 8 1020.8 1020.8 0.0
04/02:30pm 20.2 18.1 11.0 55 5.0 NNE 13 15 7 8 1020.7 - 0.0
04/02:00pm 18.8 17.2 10.2 57 4.6 NNE 9 13 5 7 1020.8 - 0.0
04/01:30pm 19.6 18.5 10.1 54 5.1 W 6 9 3 5 1021.1 - 0.0
04/01:00pm 19.9 18.2 9.7 51 5.4 SW 9 13 5 7 1021.4 - 0.0
04/12:30pm 18.8 17.1 9.7 55 4.8 SSW 9 13 5 7 1021.9 - 0.0
04/12:00pm 18.7 16.9 9.3 54 4.9 S 9 15 5 8 1022.5 1022.5 0.0
04/11:30am 18.4 15.7 9.0 54 4.9 S 13 17 7 9 1022.9 - 0.0
04/11:00am 17.7 14.5 8.5 55 4.7 SSW 15 20 8 11 1023.5 - 0.0
04/10:30am 17.1 13.5 8.2 56 4.5 SSW 17 24 9 13 1023.9 - 0.0
04/10:00am 16.5 12.2 7.7 56 4.4 SSW 20 26 11 14 1024.0 - 0.0
04/09:30am 15.7 10.9 7.4 57 4.1 SSW 22 28 12 15 1024.1 - 0.0
04/09:00am 14.5 10.1 7.3 62 3.5 SSW 20 28 11 15 1024.2 1024.1 0.0
04/08:30am 13.7 9.9 7.6 66 3.0 SSW 17 24 9 13 1024.0 - 0.0
04/08:00am 12.1 8.6 7.3 72 2.3 SSW 15 19 8 10 1023.7 - 0.0
04/07:30am 11.7 8.2 7.1 73 2.2 SSW 15 19 8 10 1023.6 - 0.0
04/07:00am 10.7 7.5 6.9 77 1.8 SSW 13 15 7 8 1023.2 - 0.0
04/06:30am 10.8 6.9 7.0 77 1.8 SSW 17 22 9 12 1022.9 - 0.0
04/06:00am 9.3 5.7 6.9 85 1.1 SSW 15 19 8 10 1022.8 1022.8 0.0
04/05:30am 10.3 6.8 7.1 80 1.5 SSW 15 19 8 10 1022.6 - 0.0
04/05:00am 10.9 7.3 6.9 76 1.9 SSW 15 19 8 10 1022.3 - 0.0
04/04:30am 9.8 6.3 7.0 83 1.3 SSW 15 17 8 9 1022.2 - 0.0
04/04:00am 11.6 8.3 6.5 71 2.4 SSW 13 17 7 9 1022.2 - 0.0
04/03:30am 11.7 8.1 6.6 71 2.4 SSW 15 20 8 11 1022.4 - 0.0
04/03:00am 12.2 8.5 6.5 68 2.7 SSW 15 19 8 10 1022.4 1022.4 0.0
04/02:30am 12.1 8.9 6.8 70 2.5 SSW 13 17 7 9 1022.5 - 0.0
04/02:00am 11.5 8.7 7.1 74 2.1 SSW 11 15 6 8 1022.6 - 0.0
04/01:30am 11.4 8.6 7.0 74 2.1 SSW 11 13 6 7 1022.7 - 0.0
04/01:00am 11.0 8.3 7.2 77 1.8 SSW 11 13 6 7 1022.8 - 0.0
04/12:30am 9.7 6.6 7.1 84 1.2 SSW 13 15 7 8 1022.6 - 0.0
04/12:00am 11.9 8.8 7.1 72 2.3 SSW 13 19 7 10 1022.7 1022.7 0.0
 
Date/Time
EST
Tmp

°C
App
Tmp
°C
Dew
Point
°C
Rel
Hum
%
Delta-T

°C
Wind Press
QNH
hPa
Press
MSL
hPa
Rain
since
9 am
mm
Dir
 
Spd
km/h
Gust
km/h
Spd
kts
Gust
kts
03/11:30pm 12.1 9.0 7.1 71 2.4 S 13 17 7 9 1023.3 - 0.0
03/11:00pm 11.2 8.0 7.0 75 2.0 SSW 13 15 7 8 1023.3 - 0.0
03/10:30pm 11.9 8.7 6.8 71 2.4 SSW 13 17 7 9 1023.6 - 0.0
03/10:00pm 11.6 8.9 7.4 75 2.0 SSW 11 15 6 8 1023.8 - 0.0
03/09:30pm 12.3 8.8 7.3 71 2.4 SSW 15 19 8 10 1023.7 - 0.0
03/09:00pm 12.7 9.9 7.1 69 2.7 S 11 13 6 7 1023.5 1023.4 0.0
03/08:30pm 13.1 10.0 7.3 68 2.8 SSW 13 17 7 9 1023.1 - 0.0
03/08:00pm 12.5 9.4 7.3 70 2.5 SSW 13 17 7 9 1023.1 - 0.0
03/07:30pm 13.4 10.7 7.2 66 3.0 S 11 15 6 8 1022.9 - 0.0
03/07:00pm 14.7 11.9 7.1 60 3.7 S 11 13 6 7 1022.6 - 0.0
03/06:30pm 15.4 12.7 7.5 59 3.9 S 11 15 6 8 1022.2 - 0.0
03/06:00pm 16.3 14.1 7.7 56 4.3 SSE 9 13 5 7 1022.0 1022.0 0.0
03/05:30pm 15.9 13.6 7.4 57 4.2 SSE 9 13 5 7 1021.7 - 0.0
03/05:00pm 16.7 14.3 7.0 52 4.8 S 9 13 5 7 1021.5 - 0.0
03/04:30pm 17.8 15.4 7.2 50 5.3 SSE 9 13 5 7 1021.3 - 0.0
03/04:00pm 18.4 15.2 6.7 46 5.8 S 13 19 7 10 1021.2 - 0.0
03/03:30pm 18.8 15.6 6.8 45 6.0 S 13 19 7 10 1020.9 - 0.0
03/03:00pm 19.2 16.4 7.1 45 6.1 SSE 11 19 6 10 1020.8 1020.8 0.0

Latest Capital City Observations: Canberra | Sydney | Melbourne | Brisbane | Adelaide | Perth | Hobart | Darwin

Other Formats:

Comma delimited format used in spreadsheet applications
http://www.bom.gov.au/fwo/IDQ60901/IDQ60901.94578.axf

JavaScript Object Notation format (JSON) in row-major order
http://www.bom.gov.au/fwo/IDQ60901/IDQ60901.94578.json